Time;durP1;ratioP1;P1;durP2;ratioP2;P2;SDS_P1;SDS_P2;PMS_P1;PMS_P2;Temp;Humidity;BMP_temperature;BMP_pressure;BME280_temperature;BME280_humidity;BME280_pressure;Samples;Min_cycle;Max_cycle;Signal;HPM_P1;HPM_P2
2024/03/31 00:00:23;;;;;;;115.93;47.80;;;11.30;100.00;;;;;;5077639;28;21346;-77
2024/03/31 00:02:51;;;;;;;101.93;49.08;;;11.20;100.00;;;;;;5060762;28;20105;-77
2024/03/31 00:05:17;;;;;;;96.35;46.45;;;11.20;100.00;;;;;;5062371;28;20146;-77
2024/03/31 00:07:43;;;;;;;103.30;48.20;;;11.20;100.00;;;;;;5059179;28;20056;-77
2024/03/31 00:10:10;;;;;;;110.07;47.03;;;11.20;100.00;;;;;;5060535;28;20874;-76
2024/03/31 00:12:38;;;;;;;97.13;44.45;;;11.10;100.00;;;;;;5044178;28;20055;-76
2024/03/31 00:15:04;;;;;;;103.68;45.15;;;11.10;100.00;;;;;;5046421;28;20114;-76
2024/03/31 00:17:31;;;;;;;106.22;49.33;;;11.00;100.00;;;;;;5076613;28;20057;-76
2024/03/31 00:19:57;;;;;;;117.40;47.25;;;11.00;100.00;;;;;;5058461;28;20068;-76
2024/03/31 00:22:24;;;;;;;92.60;42.78;;;11.00;100.00;;;;;;5041802;28;20501;-78
2024/03/31 00:24:50;;;;;;;95.03;40.90;;;10.90;100.00;;;;;;5063547;28;20076;-77
2024/03/31 00:27:15;;;;;;;85.22;41.10;;;10.80;100.00;;;;;;5058138;28;20701;-77
2024/03/31 00:29:41;;;;;;;82.10;43.58;;;10.70;100.00;;;;;;5073044;27;20044;-76
2024/03/31 00:32:07;;;;;;;94.60;45.55;;;10.60;100.00;;;;;;5065019;28;20052;-76
2024/03/31 00:34:33;;;;;;;90.45;45.33;;;10.60;100.00;;;;;;5059301;28;20965;-77
2024/03/31 00:36:59;;;;;;;107.80;45.42;;;10.60;100.00;;;;;;5058612;28;20068;-76
2024/03/31 00:39:25;;;;;;;92.10;43.15;;;10.60;100.00;;;;;;5041099;28;20060;-76
2024/03/31 00:41:51;;;;;;;103.05;42.20;;;10.60;100.00;;;;;;5057506;28;20056;-76
2024/03/31 00:44:18;;;;;;;91.10;42.22;;;10.70;100.00;;;;;;5059093;28;20048;-76
2024/03/31 00:46:44;;;;;;;81.53;40.45;;;10.70;100.00;;;;;;5074560;28;20064;-76
2024/03/31 00:49:11;;;;;;;88.15;41.08;;;10.60;100.00;;;;;;5059833;28;20137;-76
2024/03/31 00:51:37;;;;;;;101.93;40.53;;;10.60;100.00;;;;;;5058420;28;20056;-76
2024/03/31 00:54:03;;;;;;;91.22;41.63;;;10.60;100.00;;;;;;5065577;28;20048;-76
2024/03/31 00:56:29;;;;;;;104.65;41.30;;;10.60;100.00;;;;;;5057964;28;20472;-77
2024/03/31 00:58:56;;;;;;;92.15;41.95;;;10.50;100.00;;;;;;5094411;27;20055;-76
2024/03/31 01:01:23;;;;;;;82.35;40.08;;;10.50;100.00;;;;;;5093142;27;20051;-76
2024/03/31 01:03:49;;;;;;;84.10;40.58;;;10.50;100.00;;;;;;5057770;28;20052;-76
2024/03/31 01:06:18;;;;;;;83.32;40.13;;;10.40;100.00;;;;;;5059521;28;20113;-76
2024/03/31 01:08:44;;;;;;;81.45;39.08;;;10.40;100.00;;;;;;5044403;28;20061;-76
2024/03/31 01:11:11;;;;;;;96.03;39.08;;;10.40;100.00;;;;;;5057724;28;20496;-76
2024/03/31 01:13:37;;;;;;;88.82;39.97;;;10.30;100.00;;;;;;5078575;28;20064;-76
2024/03/31 01:16:03;;;;;;;76.68;38.40;;;10.30;100.00;;;;;;5069568;28;20048;-76
2024/03/31 01:18:32;;;;;;;87.07;39.17;;;10.30;100.00;;;;;;5059233;28;20057;-75
2024/03/31 01:20:58;;;;;;;97.30;41.25;;;10.30;100.00;;;;;;5091419;27;20056;-76
2024/03/31 01:23:30;;;;;;;91.57;40.97;;;10.30;100.00;;;;;;5054825;28;20052;-76
2024/03/31 01:26:01;;;;;;;81.22;40.00;;;10.20;100.00;;;;;;5059956;28;20044;-76
2024/03/31 01:28:29;;;;;;;103.80;41.97;;;10.20;100.00;;;;;;5097263;27;20124;-76
2024/03/31 01:30:56;;;;;;;102.00;40.75;;;10.20;100.00;;;;;;5065206;28;20677;-76
2024/03/31 01:33:22;;;;;;;90.78;40.05;;;10.20;100.00;;;;;;5062907;28;20052;-76
2024/03/31 01:35:50;;;;;;;93.97;40.80;;;10.10;100.00;;;;;;5065426;28;20099;-76
2024/03/31 01:38:18;;;;;;;89.22;40.03;;;10.10;100.00;;;;;;5069395;28;20052;-76
2024/03/31 01:40:44;;;;;;;81.15;39.17;;;10.00;100.00;;;;;;5056992;28;20060;-71
2024/03/31 01:43:10;;;;;;;95.18;40.50;;;10.00;100.00;;;;;;5099565;27;20441;-70
2024/03/31 01:45:35;;;;;;;86.80;40.88;;;10.00;100.00;;;;;;5062214;28;20047;-70
2024/03/31 01:48:01;;;;;;;100.40;42.22;;;9.90;100.00;;;;;;5061909;28;20099;-70
2024/03/31 01:50:27;;;;;;;92.93;40.38;;;9.90;100.00;;;;;;5070753;28;20051;-70
2024/03/31 01:52:53;;;;;;;82.57;41.25;;;9.90;100.00;;;;;;5062258;28;20074;-70
2024/03/31 01:55:19;;;;;;;91.80;42.28;;;9.80;100.00;;;;;;5061309;28;20063;-70
2024/03/31 01:57:45;;;;;;;85.70;40.33;;;9.80;100.00;;;;;;5045645;28;20207;-70
2024/03/31 02:00:11;;;;;;;80.25;40.17;;;9.70;100.00;;;;;;5051283;28;20060;-70
2024/03/31 02:02:37;;;;;;;83.40;41.63;;;9.70;100.00;;;;;;5062129;28;20179;-70
2024/03/31 02:05:04;;;;;;;92.40;43.55;;;9.60;100.00;;;;;;5061701;28;20070;-70
2024/03/31 02:07:29;;;;;;;83.38;41.65;;;9.60;100.00;;;;;;5064397;28;20053;-70
2024/03/31 02:09:55;;;;;;;100.68;42.58;;;9.60;100.00;;;;;;5050940;28;20044;-69
2024/03/31 02:12:21;;;;;;;91.72;42.13;;;9.60;100.00;;;;;;5063346;28;20060;-69
2024/03/31 02:14:47;;;;;;;97.55;42.35;;;9.60;100.00;;;;;;5094846;27;20060;-69
2024/03/31 02:17:13;;;;;;;94.93;44.03;;;9.60;100.00;;;;;;5064579;28;20052;-70
2024/03/31 02:19:38;;;;;;;98.55;43.83;;;9.60;100.00;;;;;;5061863;28;20583;-69
2024/03/31 02:22:04;;;;;;;87.65;43.28;;;9.60;100.00;;;;;;5060847;28;20064;-70
2024/03/31 02:24:30;;;;;;;100.13;44.08;;;9.60;100.00;;;;;;5060944;28;20051;-69
2024/03/31 02:26:56;;;;;;;98.60;43.58;;;9.50;100.00;;;;;;5063216;28;20061;-69
2024/03/31 02:29:23;;;;;;;91.15;41.80;;;9.50;100.00;;;;;;5061876;28;20063;-69
2024/03/31 02:31:49;;;;;;;97.13;43.85;;;9.50;100.00;;;;;;5061239;28;20053;-69
2024/03/31 02:34:15;;;;;;;103.45;44.75;;;9.50;100.00;;;;;;5060424;28;20252;-69
2024/03/31 02:36:41;;;;;;;112.57;45.40;;;9.50;100.00;;;;;;5060677;28;20052;-69
2024/03/31 02:39:07;;;;;;;108.38;43.60;;;9.50;100.00;;;;;;5062846;28;20072;-69
2024/03/31 02:41:32;;;;;;;99.38;45.17;;;9.60;100.00;;;;;;5058905;28;20048;-69
2024/03/31 02:43:58;;;;;;;103.00;43.53;;;9.50;100.00;;;;;;5094194;27;20064;-69
2024/03/31 02:46:24;;;;;;;98.25;41.95;;;9.50;100.00;;;;;;5060692;28;20048;-69
2024/03/31 02:48:50;;;;;;;105.88;46.65;;;9.40;100.00;;;;;;5060763;28;20056;-69
2024/03/31 02:51:16;;;;;;;108.13;47.88;;;9.40;100.00;;;;;;5061055;28;20056;-69
2024/03/31 02:53:41;;;;;;;102.68;47.72;;;9.30;100.00;;;;;;5063345;28;20048;-69
2024/03/31 02:56:07;;;;;;;99.35;48.80;;;9.30;100.00;;;;;;5060228;28;20056;-69
2024/03/31 02:58:33;;;;;;;112.88;50.40;;;9.30;100.00;;;;;;5074312;28;20048;-69
2024/03/31 03:01:03;;;;;;;113.80;48.53;;;9.20;100.00;;;;;;5061231;28;20063;-69
2024/03/31 03:03:29;;;;;;;92.05;47.83;;;9.30;100.00;;;;;;5061981;28;20451;-69
2024/03/31 03:05:55;;;;;;;106.18;46.83;;;9.20;100.00;;;;;;5060141;28;20057;-69
2024/03/31 03:08:21;;;;;;;96.38;46.00;;;9.20;100.00;;;;;;5083409;28;20135;-69
2024/03/31 03:10:54;;;;;;;92.45;41.38;;;9.20;100.00;;;;;;5059002;28;20128;-69
2024/03/31 03:13:20;;;;;;;86.60;35.45;;;9.20;100.00;;;;;;5060007;28;20602;-70
2024/03/31 03:15:46;;;;;;;71.07;28.98;;;9.20;100.00;;;;;;5079366;28;20064;-69
2024/03/31 03:18:18;;;;;;;85.15;41.17;;;9.40;100.00;;;;;;5093391;27;20051;-69
2024/03/31 03:20:44;;;;;;;83.90;37.55;;;9.40;100.00;;;;;;5094003;27;20090;-70
2024/03/31 03:23:10;;;;;;;71.78;27.75;;;9.40;100.00;;;;;;5060239;28;20056;-69
2024/03/31 03:25:36;;;;;;;54.70;24.65;;;9.40;100.00;;;;;;5064257;28;20079;-70
2024/03/31 03:28:02;;;;;;;59.55;24.80;;;9.60;100.00;;;;;;5060576;28;20057;-69
2024/03/31 03:30:28;;;;;;;52.20;26.40;;;9.60;100.00;;;;;;5092792;27;20051;-70
2024/03/31 03:32:54;;;;;;;54.70;24.75;;;9.70;100.00;;;;;;5060727;28;20055;-69
2024/03/31 03:35:20;;;;;;;56.80;24.52;;;9.70;100.00;;;;;;5048916;28;20064;-70
2024/03/31 03:37:47;;;;;;;50.25;24.05;;;9.80;100.00;;;;;;5075865;27;20052;-70
2024/03/31 03:40:13;;;;;;;57.40;24.13;;;9.80;100.00;;;;;;5060868;28;20056;-70
2024/03/31 03:42:39;;;;;;;56.35;26.67;;;9.80;100.00;;;;;;5092219;27;20048;-70
2024/03/31 03:45:06;;;;;;;57.13;24.83;;;9.80;100.00;;;;;;5092196;27;20053;-70
2024/03/31 03:47:32;;;;;;;56.92;25.33;;;9.80;100.00;;;;;;5063213;28;20053;-70
2024/03/31 03:49:58;;;;;;;68.63;24.92;;;9.80;100.00;;;;;;5095060;27;20098;-70
2024/03/31 03:52:23;;;;;;;49.50;23.65;;;9.80;100.00;;;;;;5059920;28;20052;-70
2024/03/31 03:54:49;;;;;;;57.38;24.45;;;9.90;100.00;;;;;;5059040;28;20064;-70
2024/03/31 03:57:15;;;;;;;53.10;24.17;;;9.80;100.00;;;;;;5060058;28;20056;-70
2024/03/31 03:59:41;;;;;;;59.25;24.10;;;9.80;100.00;;;;;;5059779;28;20088;-70
2024/03/31 04:02:07;;;;;;;53.13;22.67;;;9.80;100.00;;;;;;5059113;28;20059;-70
2024/03/31 04:04:33;;;;;;;59.95;23.67;;;9.80;100.00;;;;;;5062382;28;20044;-70
2024/03/31 04:07:00;;;;;;;53.75;23.60;;;9.80;100.00;;;;;;5059477;28;20400;-70
2024/03/31 04:09:28;;;;;;;52.08;22.33;;;9.80;100.00;;;;;;5092527;27;20055;-70
2024/03/31 04:11:54;;;;;;;44.70;21.30;;;9.80;100.00;;;;;;5044632;28;20047;-70
2024/03/31 04:14:19;;;;;;;43.88;22.05;;;9.80;100.00;;;;;;5059231;28;20186;-70
2024/03/31 04:16:45;;;;;;;53.85;22.42;;;9.80;100.00;;;;;;5064696;28;20052;-70
2024/03/31 04:19:11;;;;;;;59.33;21.67;;;9.80;100.00;;;;;;5058849;28;20056;-70
2024/03/31 04:21:38;;;;;;;49.67;22.65;;;9.80;100.00;;;;;;5059449;28;20056;-70
2024/03/31 04:24:04;;;;;;;58.80;21.05;;;9.80;100.00;;;;;;5060217;28;20064;-70
2024/03/31 04:26:30;;;;;;;50.88;21.25;;;9.80;100.00;;;;;;5061965;28;20044;-70
2024/03/31 04:28:56;;;;;;;61.42;22.25;;;9.80;100.00;;;;;;5047475;28;20059;-70
2024/03/31 04:31:22;;;;;;;55.75;21.30;;;9.80;100.00;;;;;;5058747;28;20052;-70
2024/03/31 04:33:49;;;;;;;53.85;21.63;;;9.80;100.00;;;;;;5059008;28;20062;-70
2024/03/31 04:36:16;;;;;;;43.47;21.02;;;9.70;100.00;;;;;;5074776;28;20056;-70
2024/03/31 04:38:42;;;;;;;54.10;21.48;;;9.80;100.00;;;;;;5055987;28;20060;-70
2024/03/31 04:41:08;;;;;;;50.95;21.98;;;9.70;100.00;;;;;;5058639;28;20054;-70
2024/03/31 04:43:34;;;;;;;45.17;21.25;;;9.70;100.00;;;;;;5059961;28;20060;-70
2024/03/31 04:46:02;;;;;;;53.15;22.25;;;9.70;100.00;;;;;;5046120;28;20127;-70
2024/03/31 04:48:28;;;;;;;49.38;21.67;;;9.70;100.00;;;;;;5096135;27;20048;-70
2024/03/31 04:50:54;;;;;;;48.05;20.63;;;9.70;100.00;;;;;;5062256;28;20048;-70
2024/03/31 04:53:19;;;;;;;52.10;22.50;;;9.70;100.00;;;;;;5079115;28;20072;-70
2024/03/31 04:55:45;;;;;;;51.63;22.83;;;9.70;100.00;;;;;;5070295;28;20060;-70
2024/03/31 04:58:11;;;;;;;52.03;25.13;;;9.60;100.00;;;;;;5062047;28;21008;-70
2024/03/31 05:00:37;;;;;;;53.08;22.05;;;9.60;100.00;;;;;;5061463;28;20056;-70
2024/03/31 05:03:03;;;;;;;50.67;24.95;;;9.60;100.00;;;;;;5062341;28;20052;-70
2024/03/31 05:05:29;;;;;;;53.15;21.50;;;9.60;100.00;;;;;;5062504;28;20048;-70
2024/03/31 05:07:55;;;;;;;53.58;23.25;;;9.60;100.00;;;;;;5074528;28;20135;-70
2024/03/31 05:10:21;;;;;;;59.97;21.88;;;9.60;100.00;;;;;;5063187;28;20575;-70
2024/03/31 05:12:46;;;;;;;66.60;23.15;;;9.50;100.00;;;;;;5060278;28;20051;-70
2024/03/31 05:15:12;;;;;;;60.78;21.52;;;9.50;100.00;;;;;;5061708;28;20147;-70
2024/03/31 05:17:38;;;;;;;60.30;20.65;;;9.40;100.00;;;;;;5062352;28;20056;-70
2024/03/31 05:20:04;;;;;;;54.80;21.95;;;9.40;100.00;;;;;;5061938;28;20063;-70
2024/03/31 05:22:30;;;;;;;48.20;22.02;;;9.40;100.00;;;;;;5095014;27;20052;-70
2024/03/31 05:24:56;;;;;;;49.67;23.33;;;9.40;100.00;;;;;;5061872;28;20048;-70
2024/03/31 05:27:22;;;;;;;41.60;21.05;;;9.40;100.00;;;;;;5059844;28;20048;-70
2024/03/31 05:29:48;;;;;;;53.95;21.85;;;9.40;100.00;;;;;;5062566;28;20510;-70
2024/03/31 05:32:14;;;;;;;56.55;21.55;;;9.40;100.00;;;;;;5062860;28;21316;-70
2024/03/31 05:34:40;;;;;;;52.40;21.45;;;9.40;100.00;;;;;;5061764;28;20060;-70
2024/03/31 05:37:06;;;;;;;51.50;21.98;;;9.40;100.00;;;;;;5062674;28;20087;-70
2024/03/31 05:39:31;;;;;;;48.83;22.42;;;9.40;100.00;;;;;;5061952;28;20062;-70
2024/03/31 05:41:57;;;;;;;52.63;22.95;;;9.30;100.00;;;;;;5060327;28;20636;-71
2024/03/31 05:44:23;;;;;;;53.67;22.35;;;9.40;100.00;;;;;;5059304;28;20816;-71
2024/03/31 05:46:49;;;;;;;53.65;22.65;;;9.30;100.00;;;;;;5060687;28;20048;-70
2024/03/31 05:49:15;;;;;;;52.70;24.67;;;9.30;100.00;;;;;;5061100;28;22044;-70
2024/03/31 05:51:41;;;;;;;62.88;23.75;;;9.40;100.00;;;;;;5061334;28;20122;-70
2024/03/31 05:54:06;;;;;;;52.22;22.70;;;9.30;100.00;;;;;;5060686;28;20060;-70
2024/03/31 05:56:32;;;;;;;55.60;23.50;;;9.40;100.00;;;;;;5062889;28;20056;-70
2024/03/31 05:58:58;;;;;;;54.83;23.42;;;9.40;100.00;;;;;;5060981;28;20059;-71
2024/03/31 06:01:24;;;;;;;58.42;22.08;;;9.40;100.00;;;;;;5062614;28;20058;-74
2024/03/31 06:03:50;;;;;;;57.38;23.25;;;9.40;100.00;;;;;;5060810;28;20084;-70
2024/03/31 06:06:17;;;;;;;45.95;21.55;;;9.40;100.00;;;;;;5063102;28;20193;-70
2024/03/31 06:08:45;;;;;;;55.45;22.42;;;9.40;100.00;;;;;;5080203;28;20055;-69
2024/03/31 06:11:10;;;;;;;45.08;21.65;;;9.40;100.00;;;;;;5063470;28;20611;-70
2024/03/31 06:13:36;;;;;;;51.25;23.17;;;9.50;100.00;;;;;;5096744;27;20059;-69
2024/03/31 06:16:02;;;;;;;49.30;22.33;;;9.50;100.00;;;;;;5064123;28;20063;-70
2024/03/31 06:18:28;;;;;;;46.30;22.15;;;9.60;100.00;;;;;;5067206;28;20059;-70
2024/03/31 06:20:54;;;;;;;47.08;22.75;;;9.70;100.00;;;;;;5067001;28;20060;-68
2024/03/31 06:23:20;;;;;;;49.97;20.70;;;9.70;100.00;;;;;;5066732;28;20060;-69
2024/03/31 06:25:58;;;;;;;49.55;20.70;;;9.70;100.00;;;;;;5067741;28;20693;-69
2024/03/31 06:28:24;;;;;;;51.67;21.00;;;9.70;100.00;;;;;;5099641;27;20056;-71
2024/03/31 06:30:50;;;;;;;51.78;22.27;;;9.80;100.00;;;;;;5062451;28;20059;-70
2024/03/31 06:33:16;;;;;;;47.97;21.15;;;9.90;100.00;;;;;;5063538;28;20066;-68
2024/03/31 06:35:42;;;;;;;46.50;20.65;;;9.90;100.00;;;;;;5099628;27;20162;-67
2024/03/31 06:38:08;;;;;;;47.65;21.73;;;10.00;100.00;;;;;;5074453;28;20063;-69
2024/03/31 06:40:35;;;;;;;50.35;21.45;;;10.10;100.00;;;;;;5064913;28;20058;-70
2024/03/31 06:43:01;;;;;;;45.22;21.20;;;10.20;100.00;;;;;;5066445;28;20392;-68
2024/03/31 06:45:28;;;;;;;42.90;21.67;;;10.30;100.00;;;;;;5066315;28;20423;-74
2024/03/31 06:47:55;;;;;;;45.65;21.17;;;10.30;100.00;;;;;;5101034;27;20044;-69
2024/03/31 06:50:21;;;;;;;42.25;19.70;;;10.40;100.00;;;;;;5080311;28;20048;-68
2024/03/31 06:52:46;;;;;;;47.60;20.67;;;10.40;100.00;;;;;;5067260;28;20150;-68
2024/03/31 06:55:13;;;;;;;51.90;20.70;;;10.40;100.00;;;;;;5076593;28;20056;-67
2024/03/31 06:57:39;;;;;;;43.55;20.88;;;10.50;100.00;;;;;;5084372;28;20069;-69
2024/03/31 07:00:06;;;;;;;49.08;20.98;;;10.50;100.00;;;;;;5078069;28;20060;-69
2024/03/31 07:02:32;;;;;;;43.78;20.23;;;10.60;100.00;;;;;;5073850;28;20789;-69
2024/03/31 07:04:59;;;;;;;48.00;19.75;;;10.70;100.00;;;;;;5079836;28;20055;-69
2024/03/31 07:07:25;;;;;;;46.03;19.40;;;10.80;100.00;;;;;;5080489;28;20047;-69
2024/03/31 07:09:51;;;;;;;44.67;19.95;;;10.80;100.00;;;;;;5090334;28;20043;-69
2024/03/31 07:12:17;;;;;;;46.83;20.52;;;10.80;100.00;;;;;;5079941;28;20060;-69
2024/03/31 07:14:43;;;;;;;40.80;19.40;;;10.90;100.00;;;;;;5088236;28;20097;-69
2024/03/31 07:17:09;;;;;;;38.97;20.52;;;11.10;100.00;;;;;;5098067;28;20049;-69
2024/03/31 07:19:36;;;;;;;49.50;21.25;;;11.10;100.00;;;;;;5084534;28;20462;-69
2024/03/31 07:22:02;;;;;;;48.35;20.55;;;11.10;100.00;;;;;;5080605;28;20062;-69
2024/03/31 07:24:28;;;;;;;42.03;20.52;;;11.20;100.00;;;;;;5066976;28;20044;-69
2024/03/31 07:26:53;;;;;;;51.80;22.25;;;11.40;100.00;;;;;;5063705;28;20048;-69
2024/03/31 07:29:19;;;;;;;43.45;22.15;;;11.60;100.00;;;;;;5094605;28;20055;-69
2024/03/31 07:31:45;;;;;;;48.13;21.30;;;11.80;100.00;;;;;;5090568;28;20055;-69
2024/03/31 07:34:11;;;;;;;42.60;21.52;;;11.90;100.00;;;;;;5077073;28;20143;-69
2024/03/31 07:36:37;;;;;;;47.75;22.35;;;12.10;100.00;;;;;;5123516;27;20051;-70
2024/03/31 07:39:02;;;;;;;42.97;21.25;;;12.20;100.00;;;;;;5086464;28;20150;-69
2024/03/31 07:41:28;;;;;;;49.45;20.50;;;12.30;100.00;;;;;;5072841;28;20157;-69
2024/03/31 07:43:54;;;;;;;39.47;19.77;;;12.40;100.00;;;;;;5066914;28;20044;-69
2024/03/31 07:46:20;;;;;;;48.30;19.52;;;12.30;100.00;;;;;;5065507;28;20051;-69
2024/03/31 07:48:46;;;;;;;46.15;21.13;;;12.10;100.00;;;;;;5090052;28;20152;-69
2024/03/31 07:51:12;;;;;;;45.80;19.95;;;11.90;100.00;;;;;;5071765;28;20044;-69
2024/03/31 07:53:37;;;;;;;50.00;21.15;;;11.90;100.00;;;;;;5090635;28;20775;-69
2024/03/31 07:56:04;;;;;;;47.28;20.77;;;11.80;100.00;;;;;;5087776;28;20074;-69
2024/03/31 07:58:30;;;;;;;40.20;20.95;;;11.90;100.00;;;;;;5108696;27;20075;-69
2024/03/31 08:00:56;;;;;;;42.47;22.17;;;11.80;100.00;;;;;;5069080;28;20056;-70
2024/03/31 08:03:23;;;;;;;49.83;20.50;;;11.80;100.00;;;;;;5075527;28;20794;-69
2024/03/31 08:05:49;;;;;;;43.80;20.42;;;11.70;100.00;;;;;;5083187;28;20491;-69
2024/03/31 08:08:15;;;;;;;39.13;20.55;;;11.70;100.00;;;;;;5079900;28;20480;-69
2024/03/31 08:10:44;;;;;;;45.80;20.83;;;11.90;100.00;;;;;;5090229;28;20055;-69
2024/03/31 08:13:13;;;;;;;45.38;21.02;;;11.60;100.00;;;;;;5081797;28;20424;-69
2024/03/31 08:15:42;;;;;;;42.47;20.50;;;11.80;100.00;;;;;;5090158;28;20051;-70
2024/03/31 08:18:09;;;;;;;40.22;19.00;;;11.90;100.00;;;;;;5058739;28;20063;-69
2024/03/31 08:20:35;;;;;;;38.22;18.40;;;12.10;100.00;;;;;;5087059;28;20055;-70
2024/03/31 08:23:02;;;;;;;38.85;20.05;;;12.00;100.00;;;;;;5061394;28;20085;-70
2024/03/31 08:25:27;;;;;;;43.47;20.95;;;12.10;100.00;;;;;;5089459;28;20052;-70
2024/03/31 08:27:53;;;;;;;42.85;19.10;;;12.10;100.00;;;;;;5089641;28;20071;-70
2024/03/31 08:30:19;;;;;;;46.38;20.05;;;12.30;100.00;;;;;;5070153;28;20055;-70
2024/03/31 08:32:45;;;;;;;50.03;19.92;;;12.40;100.00;;;;;;5084268;28;20044;-70
2024/03/31 08:35:11;;;;;;;50.85;19.15;;;12.30;100.00;;;;;;5116351;27;20056;-70
2024/03/31 08:37:37;;;;;;;35.80;18.50;;;12.30;100.00;;;;;;5084349;28;20497;-70
2024/03/31 08:40:05;;;;;;;36.88;17.67;;;12.40;100.00;;;;;;5081010;28;20105;-70
2024/03/31 08:42:34;;;;;;;39.50;18.15;;;12.40;100.00;;;;;;5087635;28;20098;-69
2024/03/31 08:45:02;;;;;;;39.08;17.83;;;12.30;100.00;;;;;;5097329;28;20052;-70
2024/03/31 08:47:31;;;;;;;37.55;17.13;;;12.20;100.00;;;;;;5091386;28;20055;-70
2024/03/31 08:49:58;;;;;;;36.15;16.42;;;12.20;100.00;;;;;;5090956;28;20105;-69
2024/03/31 08:52:27;;;;;;;50.85;17.58;;;12.40;100.00;;;;;;5086612;28;20058;-70
2024/03/31 08:54:57;;;;;;;42.40;16.38;;;12.40;100.00;;;;;;5075198;28;20052;-69
2024/03/31 08:57:23;;;;;;;31.80;16.45;;;12.60;100.00;;;;;;5091102;28;20058;-70
2024/03/31 08:59:49;;;;;;;37.17;17.15;;;12.50;100.00;;;;;;5084489;28;20135;-70
2024/03/31 09:02:23;;;;;;;46.33;19.63;;;12.70;100.00;;;;;;5077589;28;20076;-69
2024/03/31 09:04:49;;;;;;;38.22;17.25;;;12.70;100.00;;;;;;5076921;28;20040;-70
2024/03/31 09:07:15;;;;;;;34.97;17.85;;;12.70;100.00;;;;;;5095486;28;20059;-70
2024/03/31 09:09:41;;;;;;;40.97;17.33;;;12.60;100.00;;;;;;5087219;28;20052;-70
2024/03/31 09:12:11;;;;;;;46.05;18.00;;;12.50;100.00;;;;;;5086544;28;20051;-69
2024/03/31 09:14:41;;;;;;;45.65;17.92;;;12.60;100.00;;;;;;5093468;28;20060;-69
2024/03/31 09:17:13;;;;;;;43.47;16.77;;;12.70;100.00;;;;;;5090691;28;20454;-70
2024/03/31 09:19:39;;;;;;;37.58;16.25;;;12.90;100.00;;;;;;5084115;28;20062;-70
2024/03/31 09:22:05;;;;;;;38.28;17.10;;;13.00;100.00;;;;;;5082464;28;20055;-70
2024/03/31 09:24:32;;;;;;;37.15;16.90;;;13.10;100.00;;;;;;5084312;28;20056;-70
2024/03/31 09:26:58;;;;;;;36.58;16.95;;;13.10;100.00;;;;;;5083568;28;20048;-70
2024/03/31 09:29:25;;;;;;;37.90;15.77;;;13.00;100.00;;;;;;5090163;28;20135;-70
2024/03/31 09:31:52;;;;;;;42.25;15.40;;;13.30;100.00;;;;;;5089649;28;20676;-69
2024/03/31 09:34:18;;;;;;;30.92;15.93;;;13.40;100.00;;;;;;5085350;28;20052;-69
2024/03/31 09:36:45;;;;;;;35.92;16.70;;;13.60;100.00;;;;;;5088543;28;20048;-69
2024/03/31 09:39:11;;;;;;;33.88;15.48;;;13.40;100.00;;;;;;5092845;28;20056;-70
2024/03/31 09:41:38;;;;;;;35.72;15.63;;;13.20;100.00;;;;;;5082978;28;20048;-70
2024/03/31 09:44:05;;;;;;;33.00;15.93;;;13.40;100.00;;;;;;5088656;28;20066;-70
2024/03/31 09:46:31;;;;;;;39.88;15.77;;;13.60;100.00;;;;;;5085362;28;20047;-70
2024/03/31 09:49:03;;;;;;;36.30;15.57;;;13.60;100.00;;;;;;5090723;28;20487;-70
2024/03/31 09:51:33;;;;;;;46.85;16.92;;;13.40;100.00;;;;;;5072513;28;20051;-70
2024/03/31 09:54:01;;;;;;;33.47;15.73;;;13.50;100.00;;;;;;5090905;28;20063;-70
2024/03/31 09:56:39;;;;;;;42.97;16.05;;;13.50;100.00;;;;;;5086251;28;20066;-71
2024/03/31 09:59:08;;;;;;;45.08;15.43;;;13.50;100.00;;;;;;5090319;28;20056;-70
2024/03/31 10:01:35;;;;;;;38.53;15.80;;;13.70;100.00;;;;;;5089963;28;20044;-71
2024/03/31 10:04:11;;;;;;;37.30;16.60;;;13.90;100.00;;;;;;5081713;28;20089;-70
2024/03/31 10:06:37;;;;;;;32.17;16.17;;;13.70;100.00;;;;;;5074450;28;20057;-70
2024/03/31 10:09:04;;;;;;;39.28;16.60;;;13.50;100.00;;;;;;5094406;28;20105;-70
2024/03/31 10:11:32;;;;;;;40.53;15.77;;;13.40;100.00;;;;;;5077516;28;20066;-70
2024/03/31 10:14:00;;;;;;;40.85;16.63;;;13.50;100.00;;;;;;5091478;28;20044;-70
2024/03/31 10:16:26;;;;;;;36.80;15.63;;;13.60;100.00;;;;;;5086288;28;20063;-70
2024/03/31 10:18:55;;;;;;;37.92;14.98;;;13.60;100.00;;;;;;5075322;28;20048;-70
2024/03/31 10:21:21;;;;;;;33.97;13.52;;;14.00;100.00;;;;;;5086047;28;20074;-70
2024/03/31 10:23:50;;;;;;;32.03;13.70;;;14.20;100.00;;;;;;5088515;28;20519;-72
2024/03/31 10:26:15;;;;;;;37.75;15.32;;;14.30;100.00;;;;;;5091650;28;20466;-70
2024/03/31 10:28:46;;;;;;;34.05;13.80;;;14.40;100.00;;;;;;5094664;28;20619;-74
2024/03/31 10:31:12;;;;;;;32.40;14.65;;;14.50;100.00;;;;;;5096073;28;20044;-71
2024/03/31 10:33:38;;;;;;;38.35;14.63;;;14.20;100.00;;;;;;5087092;28;20691;-71
2024/03/31 10:36:05;;;;;;;35.03;14.88;;;13.90;100.00;;;;;;5086569;28;20541;-70
2024/03/31 10:38:31;;;;;;;34.85;14.05;;;13.80;100.00;;;;;;5084970;28;20056;-70
2024/03/31 10:40:57;;;;;;;34.58;15.25;;;13.90;100.00;;;;;;5085462;28;20519;-70
2024/03/31 10:43:24;;;;;;;38.65;13.60;;;13.80;100.00;;;;;;5093573;28;20048;-70
2024/03/31 10:45:51;;;;;;;38.95;14.35;;;13.70;100.00;;;;;;5089439;28;20048;-71
2024/03/31 10:48:18;;;;;;;33.28;14.27;;;14.10;100.00;;;;;;5090249;28;20061;-71
2024/03/31 10:50:44;;;;;;;27.40;13.55;;;14.20;100.00;;;;;;5078203;28;20129;-71
2024/03/31 10:53:10;;;;;;;31.60;13.10;;;14.50;100.00;;;;;;5091539;28;20048;-71
2024/03/31 10:55:42;;;;;;;28.27;13.48;;;14.70;100.00;;;;;;5095392;28;20051;-72
2024/03/31 10:58:13;;;;;;;41.03;15.07;;;15.00;100.00;;;;;;5075061;28;20074;-71
2024/03/31 11:00:43;;;;;;;32.35;13.45;;;15.00;100.00;;;;;;5071856;28;20048;-71
2024/03/31 11:03:10;;;;;;;34.17;13.60;;;15.10;100.00;;;;;;5089735;28;20075;-71
2024/03/31 11:05:39;;;;;;;29.90;14.43;;;14.90;100.00;;;;;;5091562;28;20510;-70
2024/03/31 11:08:07;;;;;;;28.02;14.02;;;14.70;100.00;;;;;;5077016;28;20547;-72
2024/03/31 11:10:33;;;;;;;32.85;14.02;;;14.40;100.00;;;;;;5091027;28;20056;-72
2024/03/31 11:12:59;;;;;;;28.15;13.65;;;14.50;100.00;;;;;;5078421;28;20158;-71
2024/03/31 11:15:27;;;;;;;27.92;13.05;;;14.50;100.00;;;;;;5086155;28;20056;-72
2024/03/31 11:17:53;;;;;;;30.33;13.52;;;14.50;100.00;;;;;;5085864;28;20807;-71
2024/03/31 11:20:19;;;;;;;30.25;14.13;;;14.40;100.00;;;;;;5090000;28;20082;-71
2024/03/31 11:22:46;;;;;;;29.00;13.70;;;14.30;100.00;;;;;;5084202;28;20512;-71
2024/03/31 11:25:13;;;;;;;32.10;13.43;;;14.10;100.00;;;;;;5088124;28;20059;-71
2024/03/31 11:27:39;;;;;;;36.00;14.10;;;14.10;100.00;;;;;;5066505;28;20051;-76
2024/03/31 11:30:05;;;;;;;32.13;14.02;;;14.10;100.00;;;;;;5083808;28;20063;-76
2024/03/31 11:32:32;;;;;;;33.60;14.48;;;13.90;100.00;;;;;;5083037;28;20056;-76
2024/03/31 11:34:59;;;;;;;38.10;14.85;;;13.60;100.00;;;;;;5084166;28;20056;-76
2024/03/31 11:37:25;;;;;;;34.13;13.65;;;13.40;100.00;;;;;;5084049;28;20043;-76
2024/03/31 11:40:00;;;;;;;32.75;14.60;;;13.30;100.00;;;;;;5065092;28;20460;-76
2024/03/31 11:42:27;;;;;;;33.90;14.63;;;13.20;100.00;;;;;;5083588;28;20125;-76
2024/03/31 11:44:54;;;;;;;30.40;14.27;;;13.40;100.00;;;;;;5082824;28;20473;-76
2024/03/31 11:47:20;;;;;;;32.60;14.07;;;13.50;100.00;;;;;;5066271;28;20056;-76
2024/03/31 11:49:46;;;;;;;37.38;15.68;;;13.90;100.00;;;;;;5082653;28;20870;-76
2024/03/31 11:52:13;;;;;;;38.03;14.73;;;14.20;100.00;;;;;;5082930;28;20051;-76
2024/03/31 11:54:39;;;;;;;33.63;13.68;;;14.60;100.00;;;;;;5066405;28;20048;-76
2024/03/31 11:57:05;;;;;;;34.70;14.98;;;15.30;100.00;;;;;;5067048;28;20063;-76
2024/03/31 11:59:31;;;;;;;30.25;14.82;;;15.90;100.00;;;;;;5084496;28;20097;-76
2024/03/31 12:01:58;;;;;;;31.90;14.23;;;15.80;100.00;;;;;;5085182;28;20051;-76
2024/03/31 12:04:25;;;;;;;36.05;14.40;;;15.80;100.00;;;;;;5081198;28;20510;-76
2024/03/31 12:06:53;;;;;;;27.73;14.32;;;15.80;100.00;;;;;;5071493;28;20039;-76
2024/03/31 12:09:20;;;;;;;41.08;13.85;;;15.80;100.00;;;;;;5084921;28;20071;-76
2024/03/31 12:11:46;;;;;;;37.90;14.65;;;16.00;100.00;;;;;;5083993;28;20044;-76
2024/03/31 12:14:13;;;;;;;33.30;15.48;;;15.60;100.00;;;;;;5084353;28;20058;-77
2024/03/31 12:16:44;;;;;;;34.25;14.75;;;15.80;100.00;;;;;;5086043;28;20051;-77